createdAt,value
2023-05-14T00:00:07.577Z,2.10
2023-05-14T00:02:35.278Z,2.27
2023-05-14T00:05:03.084Z,2.20
2023-05-14T00:07:31.921Z,2.23
2023-05-14T00:10:00.250Z,2.50
2023-05-14T00:12:28.186Z,1.97
2023-05-14T00:14:57.752Z,2.23
2023-05-14T00:17:25.392Z,1.70
2023-05-14T00:19:53.104Z,1.70
2023-05-14T00:22:20.866Z,1.70
2023-05-14T00:24:48.552Z,1.90
2023-05-14T00:27:16.205Z,2.07
2023-05-14T00:29:45.637Z,1.80
2023-05-14T00:32:14.775Z,2.03
2023-05-14T00:34:42.377Z,2.00
2023-05-14T00:37:10.090Z,1.80
2023-05-14T00:39:37.907Z,2.20
2023-05-14T00:42:05.868Z,1.83
2023-05-14T00:44:37.042Z,1.90
2023-05-14T00:47:06.278Z,2.20
2023-05-14T00:49:35.617Z,2.47
2023-05-14T00:52:03.693Z,1.77
2023-05-14T00:54:31.772Z,1.73
2023-05-14T00:57:00.978Z,1.87
2023-05-14T00:59:31.896Z,1.80
2023-05-14T01:02:00.400Z,1.80
2023-05-14T01:04:39.586Z,1.73
2023-05-14T01:07:13.755Z,1.80
2023-05-14T01:09:50.629Z,1.83
2023-05-14T01:12:22.562Z,1.90
2023-05-14T01:14:58.405Z,1.90
2023-05-14T01:17:29.426Z,1.80
2023-05-14T01:19:59.458Z,1.87
2023-05-14T01:22:28.705Z,2.30
2023-05-14T01:24:57.001Z,2.00
2023-05-14T01:27:30.777Z,2.03
2023-05-14T01:30:08.119Z,2.23
2023-05-14T01:32:37.055Z,1.90
2023-05-14T01:35:07.244Z,1.80
2023-05-14T01:37:39.409Z,1.80
2023-05-14T01:40:09.417Z,1.90
2023-05-14T01:42:37.756Z,2.30
2023-05-14T01:45:06.155Z,1.80
2023-05-14T01:47:34.014Z,1.87
2023-05-14T01:50:02.157Z,1.80
2023-05-14T01:52:30.131Z,2.30
2023-05-14T01:55:00.020Z,1.97
2023-05-14T01:57:28.143Z,1.73
2023-05-14T01:59:55.848Z,2.20
2023-05-14T02:02:23.888Z,2.00
2023-05-14T02:04:51.685Z,1.70
2023-05-14T02:07:19.745Z,1.70
2023-05-14T02:09:47.654Z,1.70
2023-05-14T02:12:17.116Z,1.60
2023-05-14T02:14:45.041Z,1.80
2023-05-14T02:17:15.898Z,1.93
2023-05-14T02:19:43.738Z,1.43
2023-05-14T02:22:16.733Z,1.50
2023-05-14T02:24:44.564Z,1.57
2023-05-14T02:27:15.543Z,1.73
2023-05-14T02:29:44.788Z,1.43
2023-05-14T02:32:12.572Z,1.57
2023-05-14T02:34:40.817Z,1.67
2023-05-14T02:37:09.413Z,1.40
2023-05-14T02:39:37.320Z,1.80
2023-05-14T02:42:05.463Z,1.37
2023-05-14T02:44:33.284Z,1.60
2023-05-14T02:47:03.206Z,1.57
2023-05-14T02:49:31.307Z,1.73
2023-05-14T02:52:00.835Z,1.53
2023-05-14T02:54:28.649Z,1.80
2023-05-14T02:56:56.437Z,1.50
2023-05-14T02:59:25.596Z,1.50
2023-05-14T03:01:53.823Z,1.40
2023-05-14T03:04:25.867Z,1.70
2023-05-14T03:06:53.785Z,1.33
2023-05-14T03:09:21.516Z,1.40
2023-05-14T03:11:49.362Z,1.43
2023-05-14T03:14:17.609Z,1.50
2023-05-14T03:16:46.104Z,1.60
2023-05-14T03:19:13.998Z,2.57
2023-05-14T03:21:43.222Z,1.77
2023-05-14T03:24:11.068Z,1.50
2023-05-14T03:26:39.255Z,1.43
2023-05-14T03:29:09.842Z,1.50
2023-05-14T03:31:37.690Z,1.47
2023-05-14T03:34:05.920Z,1.70
2023-05-14T03:36:34.197Z,1.40
2023-05-14T03:39:03.393Z,1.50
2023-05-14T03:41:31.154Z,1.40
2023-05-14T03:43:58.830Z,1.53
2023-05-14T03:46:26.417Z,1.40
2023-05-14T03:48:54.479Z,1.57
2023-05-14T03:51:22.269Z,1.40
2023-05-14T03:53:49.957Z,1.20
2023-05-14T03:56:18.906Z,1.20
2023-05-14T03:58:47.236Z,1.43
2023-05-14T04:01:16.033Z,1.30
2023-05-14T04:03:43.924Z,1.10
2023-05-14T04:06:11.988Z,1.33
2023-05-14T04:08:39.587Z,0.83
2023-05-14T04:11:07.172Z,1.23
2023-05-14T04:13:36.654Z,1.30
2023-05-14T04:16:04.588Z,1.23
2023-05-14T04:18:35.261Z,1.40
2023-05-14T04:21:02.977Z,1.20
2023-05-14T04:23:31.868Z,1.40
2023-05-14T04:25:59.718Z,1.40
2023-05-14T04:28:27.424Z,1.37
2023-05-14T04:30:56.387Z,1.73
2023-05-14T04:33:24.134Z,1.83
2023-05-14T04:35:52.164Z,1.30
2023-05-14T04:38:19.753Z,1.30
2023-05-14T04:40:47.323Z,1.40
2023-05-14T04:43:16.642Z,1.40
2023-05-14T04:45:46.353Z,1.60
2023-05-14T04:48:15.382Z,1.50
2023-05-14T04:50:44.322Z,1.20
2023-05-14T04:53:18.118Z,1.70
2023-05-14T04:55:49.080Z,1.40
2023-05-14T04:58:17.175Z,1.40
2023-05-14T05:00:45.366Z,1.53
2023-05-14T05:03:13.144Z,1.67
2023-05-14T05:05:42.372Z,1.80
2023-05-14T05:08:11.427Z,1.57
2023-05-14T05:10:39.005Z,1.30
2023-05-14T05:13:06.587Z,1.60
2023-05-14T05:15:35.221Z,1.70
2023-05-14T05:18:03.262Z,1.53
2023-05-14T05:20:31.122Z,1.73
2023-05-14T05:23:00.431Z,1.73
2023-05-14T05:25:32.472Z,1.80
2023-05-14T05:28:00.213Z,1.87
2023-05-14T05:30:28.241Z,1.80
2023-05-14T05:32:57.026Z,1.90
2023-05-14T05:35:25.910Z,2.10
2023-05-14T05:37:54.359Z,1.87
2023-05-14T05:40:23.749Z,2.23
2023-05-14T05:42:51.598Z,1.77
2023-05-14T05:45:19.313Z,1.97
2023-05-14T05:47:47.087Z,1.87
2023-05-14T05:50:15.548Z,1.80
2023-05-14T05:52:44.253Z,1.60
2023-05-14T05:55:12.604Z,1.80
2023-05-14T05:57:41.682Z,1.83
2023-05-14T06:00:14.256Z,1.70
2023-05-14T06:02:42.170Z,1.80
2023-05-14T06:05:12.681Z,1.70
2023-05-14T06:07:42.686Z,1.80
2023-05-14T06:10:11.204Z,1.70
2023-05-14T06:12:39.196Z,1.73
2023-05-14T06:15:09.329Z,1.70
2023-05-14T06:17:37.192Z,1.70
2023-05-14T06:20:08.017Z,1.80
2023-05-14T06:22:35.763Z,1.63
2023-05-14T06:25:03.333Z,1.80
2023-05-14T06:27:31.023Z,1.57
2023-05-14T06:41:58.197Z,1.60
2023-05-14T06:44:25.836Z,1.40
2023-05-14T06:46:54.859Z,1.73
2023-05-14T06:49:22.479Z,1.50
2023-05-14T06:51:50.180Z,1.50
2023-05-14T06:54:17.793Z,1.40
2023-05-14T06:56:46.086Z,1.70
2023-05-14T06:59:13.752Z,1.40
2023-05-14T07:01:41.506Z,2.57
2023-05-14T07:04:10.803Z,1.43
2023-05-14T07:06:38.579Z,1.60
2023-05-14T07:09:06.842Z,1.67
2023-05-14T07:11:34.695Z,2.10
2023-05-14T07:14:02.295Z,2.70
2023-05-14T07:16:29.926Z,2.03
2023-05-14T07:18:57.624Z,2.30
2023-05-14T07:21:26.931Z,2.10
2023-05-14T07:23:54.666Z,1.90
2023-05-14T07:26:24.482Z,2.03
2023-05-14T07:28:52.236Z,1.73
2023-05-14T07:31:20.022Z,1.87
2023-05-14T07:33:47.663Z,1.70
2023-05-14T07:36:15.603Z,1.90
2023-05-14T07:38:44.631Z,1.60
2023-05-14T07:41:12.434Z,1.80
2023-05-14T07:43:40.540Z,1.50
2023-05-14T07:46:08.464Z,2.20
2023-05-14T07:48:36.268Z,2.70
2023-05-14T07:51:03.991Z,2.67
2023-05-14T07:53:31.672Z,2.20
2023-05-14T07:56:00.987Z,2.70
2023-05-14T07:58:28.958Z,3.17
2023-05-14T08:00:57.687Z,4.17
2023-05-14T08:03:25.520Z,3.33
2023-05-14T08:05:53.371Z,3.00
2023-05-14T08:08:21.023Z,3.27
2023-05-14T08:10:48.698Z,3.13
2023-05-14T08:13:17.693Z,3.97
2023-05-14T08:15:45.662Z,5.23
2023-05-14T08:18:13.443Z,4.73
2023-05-14T08:20:41.303Z,4.27
2023-05-14T08:23:09.277Z,4.23
2023-05-14T08:25:36.976Z,3.40
2023-05-14T08:28:06.078Z,3.30
2023-05-14T08:30:35.103Z,3.53
2023-05-14T08:33:03.182Z,3.70
2023-05-14T08:35:31.109Z,3.50
2023-05-14T08:37:58.735Z,3.50
2023-05-14T08:40:27.398Z,3.97
2023-05-14T08:42:57.266Z,3.80
2023-05-14T08:45:31.527Z,3.40
2023-05-14T08:48:02.018Z,3.20
2023-05-14T08:50:31.147Z,3.90
2023-05-14T08:52:58.991Z,3.87
2023-05-14T08:55:29.104Z,4.10
2023-05-14T08:57:56.895Z,4.77
2023-05-14T09:00:27.570Z,4.70
2023-05-14T09:02:56.728Z,5.43
2023-05-14T09:05:25.902Z,4.53
2023-05-14T09:07:53.683Z,4.60
2023-05-14T09:10:22.276Z,3.67
2023-05-14T09:12:50.300Z,3.90
2023-05-14T09:15:18.206Z,3.43
2023-05-14T09:17:48.379Z,5.00
2023-05-14T09:20:16.556Z,3.53
2023-05-14T09:22:45.665Z,2.90
2023-05-14T09:25:13.289Z,3.60
2023-05-14T09:27:40.891Z,4.67
2023-05-14T09:30:11.065Z,3.20
2023-05-14T09:32:40.124Z,2.80
2023-05-14T09:35:20.630Z,3.77
2023-05-14T09:37:51.228Z,5.37
2023-05-14T09:40:20.740Z,5.03
2023-05-14T09:42:49.161Z,2.80
2023-05-14T09:45:17.328Z,3.27
2023-05-14T09:47:45.808Z,3.03
2023-05-14T09:50:13.852Z,2.40
2023-05-14T09:52:41.650Z,3.37
2023-05-14T09:55:11.182Z,3.60
2023-05-14T09:57:39.202Z,2.30
2023-05-14T10:00:09.489Z,2.30
2023-05-14T10:02:40.557Z,3.83
2023-05-14T10:05:09.633Z,3.17
2023-05-14T10:07:42.879Z,3.40
2023-05-14T10:10:17.150Z,4.80
2023-05-14T10:12:50.819Z,3.17
2023-05-14T10:15:21.761Z,2.63
2023-05-14T10:17:54.684Z,1.90
2023-05-14T10:20:24.677Z,2.38
2023-05-14T10:22:52.959Z,2.40
2023-05-14T10:25:22.651Z,3.20
2023-05-14T10:27:50.493Z,3.03
2023-05-14T10:30:22.943Z,2.33
2023-05-14T10:32:50.808Z,3.95
2023-05-14T10:35:20.610Z,2.20
2023-05-14T10:37:51.716Z,2.22
2023-05-14T10:40:19.650Z,2.47
2023-05-14T10:42:49.493Z,2.63
2023-05-14T10:45:17.622Z,2.35
2023-05-14T10:47:47.739Z,2.13
2023-05-14T10:50:17.446Z,2.25
2023-05-14T10:52:46.673Z,2.13
2023-05-14T10:55:16.215Z,2.63
2023-05-14T10:57:46.057Z,3.03
2023-05-14T11:00:16.221Z,3.50
2023-05-14T11:02:45.140Z,2.37
2023-05-14T11:05:16.069Z,2.45
2023-05-14T11:07:45.950Z,1.97
2023-05-14T11:10:15.678Z,2.90
2023-05-14T11:12:45.037Z,1.97
2023-05-14T11:15:17.078Z,2.20
2023-05-14T11:17:46.125Z,1.90
2023-05-14T11:20:14.782Z,1.60
2023-05-14T11:22:44.076Z,2.17
2023-05-14T11:25:14.704Z,2.53
2023-05-14T11:27:45.451Z,2.33
2023-05-14T11:30:15.905Z,2.60
2023-05-14T11:32:45.837Z,3.00
2023-05-14T11:35:13.940Z,2.77
2023-05-14T11:37:41.909Z,3.80
2023-05-14T11:40:16.230Z,2.03
2023-05-14T11:42:43.999Z,2.80
2023-05-14T11:45:13.068Z,2.27
2023-05-14T11:47:43.386Z,2.93
2023-05-14T11:50:11.757Z,3.23
2023-05-14T11:52:41.407Z,2.57
2023-05-14T11:55:12.906Z,3.30
2023-05-14T11:57:41.891Z,2.63
2023-05-14T12:00:13.463Z,3.67
2023-05-14T12:02:41.497Z,6.03
2023-05-14T12:05:14.048Z,3.47
2023-05-14T12:07:41.970Z,2.73
2023-05-14T12:10:12.813Z,3.47
2023-05-14T12:12:40.449Z,5.90
2023-05-14T12:15:12.692Z,2.30
2023-05-14T12:17:40.649Z,2.57
2023-05-14T12:20:12.500Z,2.20
2023-05-14T12:22:42.376Z,3.53
2023-05-14T12:25:13.494Z,2.27
2023-05-14T12:27:41.687Z,3.47
2023-05-14T12:32:41.711Z,2.87
2023-05-14T12:35:11.407Z,3.57
2023-05-14T12:37:39.946Z,2.43
2023-05-14T12:40:09.658Z,2.67
2023-05-14T12:42:37.558Z,2.93
2023-05-14T12:45:08.440Z,3.63
2023-05-14T12:47:36.780Z,1.97
2023-05-14T12:50:05.033Z,2.00
2023-05-14T12:52:38.742Z,1.80
2023-05-14T12:55:07.999Z,1.60
2023-05-14T12:57:35.962Z,1.90
2023-05-14T13:00:06.993Z,1.80
2023-05-14T13:02:42.873Z,1.80
2023-05-14T13:05:12.002Z,2.17
2023-05-14T13:07:41.096Z,1.60
2023-05-14T13:10:09.916Z,1.73
2023-05-14T13:12:38.665Z,1.60
2023-05-14T13:15:07.227Z,2.47
2023-05-14T13:17:34.912Z,3.20
2023-05-14T13:20:02.532Z,2.13
2023-05-14T13:22:30.703Z,2.00
2023-05-14T13:24:59.870Z,1.70
2023-05-14T13:27:27.820Z,2.00
2023-05-14T13:29:55.526Z,1.77
2023-05-14T13:32:23.504Z,3.97
2023-05-14T13:34:51.206Z,2.30
2023-05-14T13:37:18.832Z,2.50
2023-05-14T13:39:46.397Z,2.03
2023-05-14T13:42:15.344Z,1.97
2023-05-14T13:44:42.917Z,1.93
2023-05-14T13:47:11.520Z,1.60
2023-05-14T13:49:40.354Z,1.70
2023-05-14T13:52:08.139Z,1.60
2023-05-14T13:54:35.798Z,1.40
2023-05-14T13:57:03.407Z,2.50
2023-05-14T13:59:32.370Z,2.13
2023-05-14T14:02:00.085Z,2.00
2023-05-14T14:04:29.028Z,1.70
2023-05-14T14:06:56.737Z,1.60
2023-05-14T14:09:24.653Z,1.63
2023-05-14T14:11:52.765Z,1.50
2023-05-14T14:14:20.518Z,1.77
2023-05-14T14:16:49.443Z,1.70
2023-05-14T14:19:18.515Z,1.70
2023-05-14T14:21:46.435Z,1.63
2023-05-14T14:24:14.102Z,2.57
2023-05-14T14:26:41.763Z,1.50
2023-05-14T14:29:09.430Z,1.70
2023-05-14T14:31:37.246Z,1.85
2023-05-14T14:34:06.355Z,1.50
2023-05-14T14:36:33.991Z,1.40
2023-05-14T14:39:01.678Z,1.67
2023-05-14T14:41:29.339Z,1.50
2023-05-14T14:43:57.455Z,1.83
2023-05-14T14:46:25.140Z,1.67
2023-05-14T14:48:52.818Z,1.45
2023-05-14T14:51:21.814Z,1.48
2023-05-14T14:53:49.447Z,1.50
2023-05-14T14:56:17.152Z,1.33
2023-05-14T14:58:45.400Z,2.00
2023-05-14T15:01:13.116Z,1.98
2023-05-14T15:03:41.117Z,2.40
2023-05-14T15:06:09.189Z,3.88
2023-05-14T15:08:38.245Z,1.50
2023-05-14T15:11:07.213Z,1.40
2023-05-14T15:13:35.205Z,2.03
2023-05-14T15:16:03.039Z,2.08
2023-05-14T15:18:30.663Z,4.00
2023-05-14T15:20:58.371Z,2.22
2023-05-14T15:23:26.010Z,1.65
2023-05-14T15:25:55.046Z,3.20
2023-05-14T15:28:22.660Z,1.58
2023-05-14T15:30:50.315Z,2.08
2023-05-14T15:33:19.338Z,1.83
2023-05-14T15:35:47.448Z,1.63
2023-05-14T15:38:15.253Z,1.58
2023-05-14T15:40:42.931Z,1.52
2023-05-14T15:43:12.586Z,2.10
2023-05-14T15:45:40.215Z,1.30
2023-05-14T15:48:07.938Z,1.65
2023-05-14T15:50:35.615Z,3.53
2023-05-14T15:53:03.286Z,2.25
2023-05-14T15:55:30.956Z,2.30
2023-05-14T15:57:58.594Z,2.20
2023-05-14T16:00:27.681Z,2.17
2023-05-14T16:02:55.394Z,2.45
2023-05-14T16:05:23.077Z,2.63
2023-05-14T16:07:50.906Z,1.83
2023-05-14T16:10:19.408Z,2.43
2023-05-14T16:12:47.024Z,3.60
2023-05-14T16:15:15.004Z,2.30
2023-05-14T16:17:44.144Z,2.20
2023-05-14T16:20:13.244Z,2.23
2023-05-14T16:22:40.920Z,1.83
2023-05-14T16:25:09.134Z,1.60
2023-05-14T16:27:36.911Z,1.67
2023-05-14T16:30:05.384Z,1.67
2023-05-14T16:32:33.768Z,2.00
2023-05-14T16:35:02.972Z,1.27
2023-05-14T16:37:30.682Z,1.40
2023-05-14T16:39:58.315Z,1.73
2023-05-14T16:42:26.245Z,1.50
2023-05-14T16:44:54.117Z,1.60
2023-05-14T16:47:21.800Z,2.03
2023-05-14T16:49:49.519Z,1.60
2023-05-14T16:52:18.611Z,1.67
2023-05-14T16:54:46.372Z,1.60
2023-05-14T16:57:14.043Z,1.80
2023-05-14T16:59:41.647Z,1.53
2023-05-14T17:02:09.957Z,1.60
2023-05-14T17:04:38.828Z,1.40
2023-05-14T17:07:06.747Z,1.50
2023-05-14T17:09:35.866Z,2.37
2023-05-14T17:12:04.081Z,1.40
2023-05-14T17:14:31.956Z,1.70
2023-05-14T17:16:59.617Z,2.07
2023-05-14T17:19:27.272Z,1.93
2023-05-14T17:21:54.881Z,2.03
2023-05-14T17:24:22.489Z,1.60
2023-05-14T17:26:51.537Z,1.73
2023-05-14T17:29:19.195Z,1.83
2023-05-14T17:31:48.275Z,1.63
2023-05-14T17:34:17.695Z,1.67
2023-05-14T17:36:45.416Z,1.93
2023-05-14T17:39:13.012Z,1.40
2023-05-14T17:41:42.039Z,1.20
2023-05-14T17:44:12.931Z,1.30
2023-05-14T17:46:41.832Z,1.00
2023-05-14T17:49:09.558Z,1.03
2023-05-14T17:51:37.157Z,1.20
2023-05-14T17:54:05.088Z,1.30
2023-05-14T17:56:32.935Z,1.70
2023-05-14T17:59:01.354Z,1.47
2023-05-14T18:01:30.753Z,1.50
2023-05-14T18:03:58.587Z,1.10
2023-05-14T18:06:26.312Z,1.20
2023-05-14T18:08:53.970Z,1.27
2023-05-14T18:11:21.646Z,0.93
2023-05-14T18:13:49.310Z,1.17
2023-05-14T18:16:17.017Z,0.80
2023-05-14T18:18:46.103Z,0.90
2023-05-14T18:21:13.791Z,1.10
2023-05-14T18:23:41.412Z,1.10
2023-05-14T18:26:09.091Z,1.10
2023-05-14T18:28:37.910Z,1.53
2023-05-14T18:31:05.767Z,1.00
2023-05-14T18:33:33.679Z,1.17
2023-05-14T18:36:02.735Z,1.20
2023-05-14T18:38:30.342Z,1.37
2023-05-14T18:40:57.973Z,1.17
2023-05-14T18:43:26.217Z,1.23
2023-05-14T18:45:54.779Z,1.10
2023-05-14T18:48:23.032Z,1.03
2023-05-14T18:50:51.120Z,1.33
2023-05-14T18:53:20.071Z,1.30
2023-05-14T18:55:47.762Z,0.90
2023-05-14T18:58:15.454Z,1.30
2023-05-14T19:00:43.338Z,1.17
2023-05-14T19:03:11.111Z,1.30
2023-05-14T19:05:39.688Z,1.20
2023-05-14T19:08:07.585Z,1.30
2023-05-14T19:10:36.634Z,1.30
2023-05-14T19:13:04.380Z,1.13
2023-05-14T19:15:32.385Z,2.10
2023-05-14T19:18:00.134Z,1.30
2023-05-14T19:20:28.137Z,1.67
2023-05-14T19:22:55.820Z,1.60
2023-05-14T19:25:23.852Z,1.67
2023-05-14T19:27:55.233Z,1.83
2023-05-14T19:30:23.446Z,2.03
2023-05-14T19:32:51.456Z,2.40
2023-05-14T19:35:19.165Z,2.90
2023-05-14T19:37:47.355Z,2.93
2023-05-14T19:40:15.156Z,2.63
2023-05-14T19:42:42.851Z,3.90
2023-05-14T19:45:12.682Z,2.60
2023-05-14T19:47:40.564Z,6.03
2023-05-14T19:50:09.102Z,2.50
2023-05-14T19:52:36.873Z,2.40
2023-05-14T19:55:04.894Z,3.07
2023-05-14T19:57:32.604Z,2.47
2023-05-14T20:00:00.403Z,2.47
2023-05-14T20:02:29.644Z,3.50
2023-05-14T20:04:57.950Z,2.23
2023-05-14T20:07:25.961Z,2.43
2023-05-14T20:09:53.877Z,2.20
2023-05-14T20:12:21.774Z,2.20
2023-05-14T20:14:49.655Z,2.33
2023-05-14T20:17:17.876Z,1.73
2023-05-14T20:19:46.938Z,1.83
2023-05-14T20:22:15.058Z,2.17
2023-05-14T20:24:42.919Z,1.80
2023-05-14T20:27:10.677Z,2.13
2023-05-14T20:29:38.492Z,1.50
2023-05-14T20:32:07.154Z,1.70
2023-05-14T20:34:34.870Z,1.40
2023-05-14T20:37:05.140Z,2.00
2023-05-14T20:39:32.887Z,1.43
2023-05-14T20:42:00.753Z,1.40
2023-05-14T20:44:28.468Z,1.30
2023-05-14T20:46:56.220Z,1.50
2023-05-14T20:49:23.891Z,1.47
2023-05-14T20:51:51.765Z,1.50
2023-05-14T20:54:20.884Z,1.20
2023-05-14T20:56:48.666Z,1.30
2023-05-14T20:59:16.428Z,1.30
2023-05-14T21:01:44.267Z,1.30
2023-05-14T21:04:12.390Z,1.10
2023-05-14T21:06:40.131Z,1.30
2023-05-14T21:09:07.820Z,1.10
2023-05-14T21:11:36.893Z,1.50
2023-05-14T21:14:05.863Z,1.20
2023-05-14T21:16:34.050Z,1.27
2023-05-14T21:19:02.322Z,0.90
2023-05-14T21:21:30.104Z,0.97
2023-05-14T21:23:57.790Z,1.00
2023-05-14T21:26:26.907Z,0.90
2023-05-14T21:28:55.987Z,0.80
2023-05-14T21:31:23.773Z,1.20
2023-05-14T21:33:51.529Z,0.90
2023-05-14T21:36:20.459Z,0.97
2023-05-14T21:38:48.128Z,1.10
2023-05-14T21:41:16.385Z,1.10
2023-05-14T21:43:45.191Z,0.90
2023-05-14T21:46:14.463Z,1.00
2023-05-14T21:48:42.318Z,1.20
2023-05-14T21:51:10.384Z,0.93
2023-05-14T21:53:38.209Z,0.80
2023-05-14T21:56:08.184Z,0.80
2023-05-14T21:58:36.532Z,0.87
2023-05-14T22:01:04.334Z,0.83
2023-05-14T22:03:33.501Z,0.77
2023-05-14T22:06:01.659Z,1.00
2023-05-14T22:08:30.719Z,0.90
2023-05-14T22:10:59.152Z,0.70
2023-05-14T22:13:27.048Z,0.90
2023-05-14T22:16:01.471Z,0.90
2023-05-14T22:18:38.943Z,1.10
2023-05-14T22:21:07.238Z,0.90
2023-05-14T22:23:35.175Z,0.97
2023-05-14T22:26:03.157Z,1.17
2023-05-14T22:28:31.276Z,1.10
2023-05-14T22:30:59.725Z,1.20
2023-05-14T22:33:27.797Z,1.17
2023-05-14T22:35:57.192Z,1.00
2023-05-14T22:38:25.226Z,1.13
2023-05-14T22:40:53.083Z,1.10
2023-05-14T22:43:20.952Z,1.20
2023-05-14T22:45:48.750Z,0.90
2023-05-14T22:48:16.684Z,1.00
2023-05-14T22:50:44.437Z,1.00
2023-05-14T22:53:13.812Z,1.10
2023-05-14T22:55:41.536Z,0.77
2023-05-14T22:58:09.302Z,1.30
2023-05-14T23:00:37.358Z,1.77
2023-05-14T23:03:05.195Z,1.00
2023-05-14T23:05:33.299Z,1.17
2023-05-14T23:08:01.119Z,0.90
2023-05-14T23:10:30.382Z,1.10
2023-05-14T23:12:58.230Z,1.10
2023-05-14T23:15:26.412Z,1.37
2023-05-14T23:17:54.387Z,1.17
2023-05-14T23:20:22.207Z,1.30
2023-05-14T23:22:50.003Z,1.03
2023-05-14T23:25:17.724Z,1.20
2023-05-14T23:27:47.067Z,1.40
2023-05-14T23:30:15.102Z,1.20
2023-05-14T23:32:43.006Z,1.20
2023-05-14T23:35:11.501Z,1.23
2023-05-14T23:37:42.965Z,1.23
2023-05-14T23:40:11.165Z,2.97
2023-05-14T23:42:38.898Z,2.60
2023-05-14T23:45:09.369Z,2.57
2023-05-14T23:47:37.213Z,2.37
2023-05-14T23:50:05.494Z,2.23
2023-05-14T23:52:34.448Z,3.07
2023-05-14T23:55:02.154Z,2.20
2023-05-14T23:57:29.918Z,2.17
2023-05-14T23:59:57.573Z,1.97
